sensor_id;sensor_type;location;lat;lon;timestamp;P1;durP1;ratioP1;P2;durP2;ratioP2
7515;SDS011;3799;47.184;8.538;2023-02-28T00:00:33;6.72;;;3.72;;
7515;SDS011;3799;47.184;8.538;2023-02-28T00:03:06;6.28;;;3.55;;
7515;SDS011;3799;47.184;8.538;2023-02-28T00:05:35;6.75;;;3.42;;
7515;SDS011;3799;47.184;8.538;2023-02-28T00:08:03;5.38;;;3.72;;
7515;SDS011;3799;47.184;8.538;2023-02-28T00:10:31;6.38;;;3.78;;
7515;SDS011;3799;47.184;8.538;2023-02-28T00:13:00;5.95;;;3.47;;
7515;SDS011;3799;47.184;8.538;2023-02-28T00:15:44;8.43;;;3.60;;
7515;SDS011;3799;47.184;8.538;2023-02-28T00:18:12;7.32;;;3.30;;
7515;SDS011;3799;47.184;8.538;2023-02-28T00:20:40;7.95;;;3.17;;
7515;SDS011;3799;47.184;8.538;2023-02-28T00:23:07;7.45;;;3.25;;
7515;SDS011;3799;47.184;8.538;2023-02-28T00:25:34;6.30;;;4.18;;
7515;SDS011;3799;47.184;8.538;2023-02-28T00:28:02;7.18;;;3.35;;
7515;SDS011;3799;47.184;8.538;2023-02-28T00:30:29;6.05;;;3.45;;
7515;SDS011;3799;47.184;8.538;2023-02-28T00:35:28;5.50;;;3.05;;
7515;SDS011;3799;47.184;8.538;2023-02-28T00:37:56;6.68;;;3.30;;
7515;SDS011;3799;47.184;8.538;2023-02-28T00:40:23;8.82;;;3.42;;
7515;SDS011;3799;47.184;8.538;2023-02-28T00:42:51;9.43;;;4.15;;
7515;SDS011;3799;47.184;8.538;2023-02-28T00:45:18;7.03;;;3.72;;
7515;SDS011;3799;47.184;8.538;2023-02-28T00:47:46;7.28;;;3.80;;
7515;SDS011;3799;47.184;8.538;2023-02-28T00:50:18;8.05;;;3.85;;
7515;SDS011;3799;47.184;8.538;2023-02-28T00:52:47;8.00;;;3.92;;
7515;SDS011;3799;47.184;8.538;2023-02-28T00:55:14;6.03;;;3.28;;
7515;SDS011;3799;47.184;8.538;2023-02-28T00:57:41;5.88;;;3.83;;
7515;SDS011;3799;47.184;8.538;2023-02-28T01:00:09;7.20;;;3.55;;
7515;SDS011;3799;47.184;8.538;2023-02-28T01:02:40;7.88;;;3.20;;
7515;SDS011;3799;47.184;8.538;2023-02-28T01:05:07;6.13;;;3.72;;
7515;SDS011;3799;47.184;8.538;2023-02-28T01:07:48;5.68;;;3.42;;
7515;SDS011;3799;47.184;8.538;2023-02-28T01:10:16;7.85;;;3.75;;
7515;SDS011;3799;47.184;8.538;2023-02-28T01:12:44;7.22;;;4.05;;
7515;SDS011;3799;47.184;8.538;2023-02-28T01:15:11;7.65;;;3.53;;
7515;SDS011;3799;47.184;8.538;2023-02-28T01:17:38;5.72;;;4.28;;
7515;SDS011;3799;47.184;8.538;2023-02-28T01:20:06;8.55;;;4.10;;
7515;SDS011;3799;47.184;8.538;2023-02-28T01:22:34;6.53;;;3.53;;
7515;SDS011;3799;47.184;8.538;2023-02-28T01:25:02;9.85;;;4.35;;
7515;SDS011;3799;47.184;8.538;2023-02-28T01:27:29;6.97;;;3.72;;
7515;SDS011;3799;47.184;8.538;2023-02-28T01:29:59;7.55;;;4.28;;
7515;SDS011;3799;47.184;8.538;2023-02-28T01:32:34;6.18;;;3.72;;
7515;SDS011;3799;47.184;8.538;2023-02-28T01:35:02;5.93;;;3.97;;
7515;SDS011;3799;47.184;8.538;2023-02-28T01:37:29;7.95;;;4.20;;
7515;SDS011;3799;47.184;8.538;2023-02-28T01:39:57;7.97;;;4.53;;
7515;SDS011;3799;47.184;8.538;2023-02-28T01:42:24;7.75;;;4.47;;
7515;SDS011;3799;47.184;8.538;2023-02-28T01:44:56;6.78;;;4.05;;
7515;SDS011;3799;47.184;8.538;2023-02-28T01:47:34;9.50;;;4.10;;
7515;SDS011;3799;47.184;8.538;2023-02-28T01:50:06;8.38;;;4.28;;
7515;SDS011;3799;47.184;8.538;2023-02-28T01:52:38;7.43;;;3.60;;
7515;SDS011;3799;47.184;8.538;2023-02-28T01:55:05;6.32;;;3.97;;
7515;SDS011;3799;47.184;8.538;2023-02-28T01:57:35;8.38;;;4.40;;
7515;SDS011;3799;47.184;8.538;2023-02-28T02:00:07;7.65;;;4.07;;
7515;SDS011;3799;47.184;8.538;2023-02-28T02:02:40;11.82;;;4.65;;
7515;SDS011;3799;47.184;8.538;2023-02-28T02:05:12;7.90;;;3.67;;
7515;SDS011;3799;47.184;8.538;2023-02-28T02:07:43;9.65;;;4.55;;
7515;SDS011;3799;47.184;8.538;2023-02-28T02:15:30;9.18;;;4.43;;
7515;SDS011;3799;47.184;8.538;2023-02-28T02:18:13;8.20;;;3.88;;
7515;SDS011;3799;47.184;8.538;2023-02-28T02:37:38;6.60;;;3.97;;
7515;SDS011;3799;47.184;8.538;2023-02-28T02:42:49;6.28;;;4.20;;
7515;SDS011;3799;47.184;8.538;2023-02-28T02:45:26;7.18;;;4.28;;
7515;SDS011;3799;47.184;8.538;2023-02-28T02:48:03;9.43;;;4.07;;
7515;SDS011;3799;47.184;8.538;2023-02-28T02:50:38;6.78;;;3.50;;
7515;SDS011;3799;47.184;8.538;2023-02-28T02:53:10;8.27;;;4.03;;
7515;SDS011;3799;47.184;8.538;2023-02-28T02:55:41;7.68;;;4.43;;
7515;SDS011;3799;47.184;8.538;2023-02-28T02:58:14;7.68;;;4.22;;
7515;SDS011;3799;47.184;8.538;2023-02-28T03:00:45;7.47;;;4.38;;
7515;SDS011;3799;47.184;8.538;2023-02-28T03:03:16;9.70;;;4.43;;
7515;SDS011;3799;47.184;8.538;2023-02-28T03:05:48;7.47;;;3.95;;
7515;SDS011;3799;47.184;8.538;2023-02-28T03:08:16;6.68;;;4.20;;
7515;SDS011;3799;47.184;8.538;2023-02-28T03:11:02;7.50;;;4.00;;
7515;SDS011;3799;47.184;8.538;2023-02-28T03:30:27;8.05;;;4.28;;
7515;SDS011;3799;47.184;8.538;2023-02-28T03:33:18;7.35;;;4.32;;
7515;SDS011;3799;47.184;8.538;2023-02-28T03:35:51;9.00;;;4.75;;
7515;SDS011;3799;47.184;8.538;2023-02-28T03:38:38;10.88;;;5.07;;
7515;SDS011;3799;47.184;8.538;2023-02-28T03:41:20;9.85;;;4.68;;
7515;SDS011;3799;47.184;8.538;2023-02-28T03:43:52;8.80;;;4.13;;
7515;SDS011;3799;47.184;8.538;2023-02-28T03:46:23;9.90;;;4.82;;
7515;SDS011;3799;47.184;8.538;2023-02-28T03:48:55;8.30;;;4.32;;
7515;SDS011;3799;47.184;8.538;2023-02-28T03:51:42;8.35;;;4.47;;
7515;SDS011;3799;47.184;8.538;2023-02-28T03:54:13;13.02;;;5.30;;
7515;SDS011;3799;47.184;8.538;2023-02-28T03:59:37;8.27;;;4.97;;
7515;SDS011;3799;47.184;8.538;2023-02-28T04:02:08;9.57;;;5.13;;
7515;SDS011;3799;47.184;8.538;2023-02-28T04:04:36;9.05;;;4.28;;
7515;SDS011;3799;47.184;8.538;2023-02-28T04:07:05;8.32;;;5.03;;
7515;SDS011;3799;47.184;8.538;2023-02-28T04:09:34;8.80;;;5.03;;
7515;SDS011;3799;47.184;8.538;2023-02-28T04:12:02;8.13;;;4.78;;
7515;SDS011;3799;47.184;8.538;2023-02-28T04:14:29;11.07;;;4.90;;
7515;SDS011;3799;47.184;8.538;2023-02-28T04:16:57;9.20;;;5.05;;
7515;SDS011;3799;47.184;8.538;2023-02-28T04:19:24;8.43;;;4.60;;
7515;SDS011;3799;47.184;8.538;2023-02-28T04:21:52;7.03;;;4.30;;
7515;SDS011;3799;47.184;8.538;2023-02-28T04:24:24;8.27;;;4.55;;
7515;SDS011;3799;47.184;8.538;2023-02-28T04:26:54;9.85;;;4.85;;
7515;SDS011;3799;47.184;8.538;2023-02-28T04:29:31;7.88;;;4.47;;
7515;SDS011;3799;47.184;8.538;2023-02-28T04:31:59;8.30;;;4.07;;
7515;SDS011;3799;47.184;8.538;2023-02-28T04:34:28;8.68;;;4.32;;
7515;SDS011;3799;47.184;8.538;2023-02-28T04:36:57;7.97;;;4.70;;
7515;SDS011;3799;47.184;8.538;2023-02-28T04:39:39;7.40;;;3.83;;
7515;SDS011;3799;47.184;8.538;2023-02-28T04:42:07;8.77;;;4.53;;
7515;SDS011;3799;47.184;8.538;2023-02-28T04:44:35;9.05;;;5.80;;
7515;SDS011;3799;47.184;8.538;2023-02-28T04:47:02;7.95;;;4.20;;
7515;SDS011;3799;47.184;8.538;2023-02-28T04:49:29;11.68;;;4.95;;
7515;SDS011;3799;47.184;8.538;2023-02-28T04:51:56;8.52;;;4.28;;
7515;SDS011;3799;47.184;8.538;2023-02-28T04:54:23;9.65;;;4.75;;
7515;SDS011;3799;47.184;8.538;2023-02-28T04:56:51;7.05;;;4.25;;
7515;SDS011;3799;47.184;8.538;2023-02-28T04:59:18;7.72;;;4.03;;
7515;SDS011;3799;47.184;8.538;2023-02-28T05:01:55;6.57;;;3.78;;
7515;SDS011;3799;47.184;8.538;2023-02-28T05:04:23;8.70;;;4.72;;
7515;SDS011;3799;47.184;8.538;2023-02-28T05:06:50;8.82;;;4.63;;
7515;SDS011;3799;47.184;8.538;2023-02-28T05:09:18;7.93;;;4.80;;
7515;SDS011;3799;47.184;8.538;2023-02-28T05:11:54;9.63;;;4.47;;
7515;SDS011;3799;47.184;8.538;2023-02-28T05:14:21;9.27;;;4.55;;
7515;SDS011;3799;47.184;8.538;2023-02-28T05:16:49;7.50;;;4.13;;
7515;SDS011;3799;47.184;8.538;2023-02-28T05:19:17;7.63;;;4.22;;
7515;SDS011;3799;47.184;8.538;2023-02-28T05:21:51;10.85;;;4.90;;
7515;SDS011;3799;47.184;8.538;2023-02-28T05:24:20;9.05;;;5.28;;
7515;SDS011;3799;47.184;8.538;2023-02-28T05:26:51;8.40;;;4.47;;
7515;SDS011;3799;47.184;8.538;2023-02-28T05:29:20;7.68;;;4.32;;
7515;SDS011;3799;47.184;8.538;2023-02-28T05:31:48;9.18;;;4.50;;
7515;SDS011;3799;47.184;8.538;2023-02-28T05:34:17;6.70;;;4.18;;
7515;SDS011;3799;47.184;8.538;2023-02-28T05:36:45;9.45;;;4.85;;
7515;SDS011;3799;47.184;8.538;2023-02-28T05:39:12;8.25;;;4.18;;
7515;SDS011;3799;47.184;8.538;2023-02-28T05:41:46;8.65;;;4.28;;
7515;SDS011;3799;47.184;8.538;2023-02-28T05:44:14;10.27;;;5.25;;
7515;SDS011;3799;47.184;8.538;2023-02-28T05:46:42;8.93;;;4.57;;
7515;SDS011;3799;47.184;8.538;2023-02-28T05:49:10;9.75;;;4.47;;
7515;SDS011;3799;47.184;8.538;2023-02-28T05:51:39;9.30;;;5.10;;
7515;SDS011;3799;47.184;8.538;2023-02-28T05:54:07;7.40;;;3.97;;
7515;SDS011;3799;47.184;8.538;2023-02-28T05:56:35;8.10;;;3.90;;
7515;SDS011;3799;47.184;8.538;2023-02-28T05:59:04;7.72;;;4.50;;
7515;SDS011;3799;47.184;8.538;2023-02-28T06:01:41;7.32;;;4.13;;
7515;SDS011;3799;47.184;8.538;2023-02-28T06:04:16;7.45;;;4.95;;
7515;SDS011;3799;47.184;8.538;2023-02-28T06:07:00;8.23;;;4.50;;
7515;SDS011;3799;47.184;8.538;2023-02-28T06:09:28;7.80;;;4.32;;
7515;SDS011;3799;47.184;8.538;2023-02-28T06:12:05;9.13;;;4.90;;
7515;SDS011;3799;47.184;8.538;2023-02-28T06:14:36;8.27;;;4.88;;
7515;SDS011;3799;47.184;8.538;2023-02-28T06:17:06;7.57;;;4.15;;
7515;SDS011;3799;47.184;8.538;2023-02-28T06:19:37;10.82;;;4.88;;
7515;SDS011;3799;47.184;8.538;2023-02-28T06:22:05;7.15;;;4.38;;
7515;SDS011;3799;47.184;8.538;2023-02-28T06:24:32;9.20;;;4.57;;
7515;SDS011;3799;47.184;8.538;2023-02-28T06:27:00;8.27;;;5.07;;
7515;SDS011;3799;47.184;8.538;2023-02-28T06:29:33;9.55;;;4.82;;
7515;SDS011;3799;47.184;8.538;2023-02-28T06:32:01;6.88;;;4.22;;
7515;SDS011;3799;47.184;8.538;2023-02-28T06:34:29;9.15;;;4.28;;
7515;SDS011;3799;47.184;8.538;2023-02-28T06:36:56;8.90;;;4.30;;
7515;SDS011;3799;47.184;8.538;2023-02-28T06:39:29;10.30;;;4.45;;
7515;SDS011;3799;47.184;8.538;2023-02-28T06:41:56;8.18;;;4.43;;
7515;SDS011;3799;47.184;8.538;2023-02-28T06:44:24;10.55;;;4.65;;
7515;SDS011;3799;47.184;8.538;2023-02-28T06:46:51;9.68;;;5.13;;
7515;SDS011;3799;47.184;8.538;2023-02-28T06:49:18;9.02;;;4.45;;
7515;SDS011;3799;47.184;8.538;2023-02-28T06:51:46;9.63;;;4.85;;
7515;SDS011;3799;47.184;8.538;2023-02-28T06:54:13;9.57;;;5.47;;
7515;SDS011;3799;47.184;8.538;2023-02-28T06:56:40;10.35;;;4.60;;
7515;SDS011;3799;47.184;8.538;2023-02-28T06:59:10;8.27;;;4.90;;
7515;SDS011;3799;47.184;8.538;2023-02-28T07:01:38;8.05;;;4.13;;
7515;SDS011;3799;47.184;8.538;2023-02-28T07:04:08;9.05;;;4.50;;
7515;SDS011;3799;47.184;8.538;2023-02-28T07:06:35;9.02;;;4.70;;
7515;SDS011;3799;47.184;8.538;2023-02-28T07:09:02;11.30;;;5.47;;
7515;SDS011;3799;47.184;8.538;2023-02-28T07:11:32;8.82;;;5.22;;
7515;SDS011;3799;47.184;8.538;2023-02-28T07:13:59;10.70;;;5.32;;
7515;SDS011;3799;47.184;8.538;2023-02-28T07:16:26;9.73;;;5.35;;
7515;SDS011;3799;47.184;8.538;2023-02-28T07:18:53;10.05;;;5.25;;
7515;SDS011;3799;47.184;8.538;2023-02-28T07:21:22;9.15;;;5.15;;
7515;SDS011;3799;47.184;8.538;2023-02-28T07:23:50;10.52;;;4.93;;
7515;SDS011;3799;47.184;8.538;2023-02-28T07:26:19;8.98;;;4.93;;
7515;SDS011;3799;47.184;8.538;2023-02-28T07:28:47;7.18;;;4.75;;
7515;SDS011;3799;47.184;8.538;2023-02-28T07:31:24;10.73;;;5.00;;
7515;SDS011;3799;47.184;8.538;2023-02-28T07:33:52;8.85;;;4.88;;
7515;SDS011;3799;47.184;8.538;2023-02-28T07:36:20;12.25;;;5.13;;
7515;SDS011;3799;47.184;8.538;2023-02-28T07:38:48;9.75;;;5.38;;
7515;SDS011;3799;47.184;8.538;2023-02-28T07:41:20;8.82;;;4.57;;
7515;SDS011;3799;47.184;8.538;2023-02-28T07:43:49;8.05;;;4.95;;
7515;SDS011;3799;47.184;8.538;2023-02-28T07:46:27;9.23;;;5.13;;
7515;SDS011;3799;47.184;8.538;2023-02-28T07:48:56;10.98;;;6.18;;
7515;SDS011;3799;47.184;8.538;2023-02-28T07:51:26;10.73;;;5.45;;
7515;SDS011;3799;47.184;8.538;2023-02-28T07:53:54;11.93;;;6.30;;
7515;SDS011;3799;47.184;8.538;2023-02-28T07:56:21;9.27;;;5.10;;
7515;SDS011;3799;47.184;8.538;2023-02-28T07:58:49;11.07;;;5.45;;
7515;SDS011;3799;47.184;8.538;2023-02-28T08:01:17;6.63;;;4.47;;
7515;SDS011;3799;47.184;8.538;2023-02-28T08:03:47;10.35;;;5.15;;
7515;SDS011;3799;47.184;8.538;2023-02-28T08:06:16;12.05;;;5.00;;
7515;SDS011;3799;47.184;8.538;2023-02-28T08:08:46;8.43;;;4.75;;
7515;SDS011;3799;47.184;8.538;2023-02-28T08:11:14;8.73;;;4.75;;
7515;SDS011;3799;47.184;8.538;2023-02-28T08:13:43;9.05;;;4.95;;
7515;SDS011;3799;47.184;8.538;2023-02-28T08:16:12;8.10;;;4.68;;
7515;SDS011;3799;47.184;8.538;2023-02-28T08:18:44;8.40;;;4.72;;
7515;SDS011;3799;47.184;8.538;2023-02-28T08:21:12;10.77;;;5.47;;
7515;SDS011;3799;47.184;8.538;2023-02-28T08:23:40;8.05;;;4.75;;
7515;SDS011;3799;47.184;8.538;2023-02-28T08:26:08;7.80;;;4.60;;
7515;SDS011;3799;47.184;8.538;2023-02-28T08:28:35;8.57;;;4.75;;
7515;SDS011;3799;47.184;8.538;2023-02-28T08:31:06;9.98;;;5.22;;
7515;SDS011;3799;47.184;8.538;2023-02-28T08:33:39;9.57;;;5.97;;
7515;SDS011;3799;47.184;8.538;2023-02-28T08:36:07;8.02;;;4.78;;
7515;SDS011;3799;47.184;8.538;2023-02-28T08:38:36;7.85;;;4.55;;
7515;SDS011;3799;47.184;8.538;2023-02-28T08:41:05;8.90;;;4.72;;
7515;SDS011;3799;47.184;8.538;2023-02-28T08:43:35;8.68;;;5.18;;
7515;SDS011;3799;47.184;8.538;2023-02-28T08:46:03;10.38;;;5.15;;
7515;SDS011;3799;47.184;8.538;2023-02-28T08:48:32;9.05;;;4.28;;
7515;SDS011;3799;47.184;8.538;2023-02-28T08:51:11;9.07;;;4.78;;
7515;SDS011;3799;47.184;8.538;2023-02-28T08:53:45;7.15;;;4.63;;
7515;SDS011;3799;47.184;8.538;2023-02-28T08:56:13;8.18;;;4.80;;
7515;SDS011;3799;47.184;8.538;2023-02-28T08:58:43;10.23;;;5.13;;
7515;SDS011;3799;47.184;8.538;2023-02-28T09:01:12;10.65;;;4.57;;
7515;SDS011;3799;47.184;8.538;2023-02-28T09:03:48;7.80;;;4.72;;
7515;SDS011;3799;47.184;8.538;2023-02-28T09:06:20;9.85;;;4.82;;
7515;SDS011;3799;47.184;8.538;2023-02-28T09:08:49;8.63;;;4.60;;
7515;SDS011;3799;47.184;8.538;2023-02-28T09:11:17;8.10;;;4.60;;
7515;SDS011;3799;47.184;8.538;2023-02-28T09:13:46;8.27;;;5.15;;
7515;SDS011;3799;47.184;8.538;2023-02-28T09:16:14;8.88;;;5.55;;
7515;SDS011;3799;47.184;8.538;2023-02-28T09:18:43;10.65;;;6.10;;
7515;SDS011;3799;47.184;8.538;2023-02-28T09:21:13;9.40;;;4.85;;
7515;SDS011;3799;47.184;8.538;2023-02-28T09:23:45;9.48;;;4.82;;
7515;SDS011;3799;47.184;8.538;2023-02-28T09:26:14;8.93;;;4.47;;
7515;SDS011;3799;47.184;8.538;2023-02-28T09:28:44;9.18;;;4.57;;
7515;SDS011;3799;47.184;8.538;2023-02-28T09:31:26;7.82;;;4.65;;
7515;SDS011;3799;47.184;8.538;2023-02-28T09:33:56;9.82;;;4.75;;
7515;SDS011;3799;47.184;8.538;2023-02-28T09:36:24;8.15;;;5.35;;
7515;SDS011;3799;47.184;8.538;2023-02-28T09:39:11;9.18;;;4.95;;
7515;SDS011;3799;47.184;8.538;2023-02-28T09:44:39;11.43;;;5.22;;
7515;SDS011;3799;47.184;8.538;2023-02-28T09:47:12;7.53;;;4.65;;
7515;SDS011;3799;47.184;8.538;2023-02-28T09:49:41;10.10;;;5.18;;
7515;SDS011;3799;47.184;8.538;2023-02-28T09:52:17;8.18;;;4.55;;
7515;SDS011;3799;47.184;8.538;2023-02-28T09:54:50;9.20;;;4.47;;
7515;SDS011;3799;47.184;8.538;2023-02-28T09:57:19;7.90;;;4.70;;
7515;SDS011;3799;47.184;8.538;2023-02-28T10:00:05;9.85;;;4.55;;
7515;SDS011;3799;47.184;8.538;2023-02-28T10:08:25;8.82;;;4.72;;
7515;SDS011;3799;47.184;8.538;2023-02-28T10:11:00;9.77;;;5.20;;
7515;SDS011;3799;47.184;8.538;2023-02-28T10:16:40;10.45;;;5.03;;
7515;SDS011;3799;47.184;8.538;2023-02-28T10:19:34;9.93;;;4.45;;
7515;SDS011;3799;47.184;8.538;2023-02-28T10:22:12;9.30;;;5.03;;
7515;SDS011;3799;47.184;8.538;2023-02-28T10:24:46;9.48;;;5.38;;
7515;SDS011;3799;47.184;8.538;2023-02-28T10:27:27;9.20;;;4.85;;
7515;SDS011;3799;47.184;8.538;2023-02-28T10:30:14;10.15;;;4.88;;
7515;SDS011;3799;47.184;8.538;2023-02-28T10:32:46;8.73;;;4.72;;
7515;SDS011;3799;47.184;8.538;2023-02-28T10:35:26;8.38;;;4.68;;
7515;SDS011;3799;47.184;8.538;2023-02-28T10:37:58;9.90;;;4.72;;
7515;SDS011;3799;47.184;8.538;2023-02-28T10:40:51;9.68;;;4.93;;
7515;SDS011;3799;47.184;8.538;2023-02-28T10:43:29;11.07;;;4.95;;
7515;SDS011;3799;47.184;8.538;2023-02-28T10:46:02;7.63;;;4.97;;
7515;SDS011;3799;47.184;8.538;2023-02-28T10:51:01;10.18;;;5.50;;
7515;SDS011;3799;47.184;8.538;2023-02-28T10:53:33;12.77;;;5.25;;
7515;SDS011;3799;47.184;8.538;2023-02-28T10:56:26;9.15;;;4.38;;
7515;SDS011;3799;47.184;8.538;2023-02-28T11:01:45;9.13;;;4.90;;
7515;SDS011;3799;47.184;8.538;2023-02-28T11:04:16;7.65;;;4.70;;
7515;SDS011;3799;47.184;8.538;2023-02-28T11:07:00;9.13;;;5.20;;
7515;SDS011;3799;47.184;8.538;2023-02-28T11:09:30;9.98;;;5.22;;
7515;SDS011;3799;47.184;8.538;2023-02-28T11:12:04;11.07;;;5.18;;
7515;SDS011;3799;47.184;8.538;2023-02-28T11:14:59;9.77;;;5.13;;
7515;SDS011;3799;47.184;8.538;2023-02-28T11:17:28;7.97;;;4.45;;
7515;SDS011;3799;47.184;8.538;2023-02-28T11:20:04;10.85;;;5.70;;
7515;SDS011;3799;47.184;8.538;2023-02-28T11:22:36;9.70;;;5.07;;
7515;SDS011;3799;47.184;8.538;2023-02-28T11:25:22;8.88;;;4.85;;
7515;SDS011;3799;47.184;8.538;2023-02-28T11:27:54;9.82;;;5.07;;
7515;SDS011;3799;47.184;8.538;2023-02-28T11:30:27;9.40;;;4.82;;
7515;SDS011;3799;47.184;8.538;2023-02-28T11:32:58;10.52;;;5.05;;
7515;SDS011;3799;47.184;8.538;2023-02-28T11:35:44;11.35;;;5.00;;
7515;SDS011;3799;47.184;8.538;2023-02-28T11:38:14;11.23;;;5.95;;
7515;SDS011;3799;47.184;8.538;2023-02-28T11:46:33;10.20;;;5.32;;
7515;SDS011;3799;47.184;8.538;2023-02-28T12:03:29;8.10;;;4.40;;
7515;SDS011;3799;47.184;8.538;2023-02-28T12:06:33;10.27;;;5.50;;
7515;SDS011;3799;47.184;8.538;2023-02-28T12:11:51;11.30;;;5.85;;
7515;SDS011;3799;47.184;8.538;2023-02-28T12:14:44;8.18;;;4.72;;
7515;SDS011;3799;47.184;8.538;2023-02-28T12:20:14;9.75;;;4.65;;
7515;SDS011;3799;47.184;8.538;2023-02-28T12:28:34;8.10;;;5.00;;
7515;SDS011;3799;47.184;8.538;2023-02-28T12:31:18;9.82;;;4.95;;
7515;SDS011;3799;47.184;8.538;2023-02-28T12:34:17;9.88;;;5.65;;
7515;SDS011;3799;47.184;8.538;2023-02-28T12:36:49;10.93;;;5.63;;
7515;SDS011;3799;47.184;8.538;2023-02-28T12:39:23;9.05;;;5.75;;
7515;SDS011;3799;47.184;8.538;2023-02-28T12:42:01;11.52;;;5.63;;
7515;SDS011;3799;47.184;8.538;2023-02-28T12:44:40;8.63;;;4.88;;
7515;SDS011;3799;47.184;8.538;2023-02-28T12:47:20;7.82;;;4.93;;
7515;SDS011;3799;47.184;8.538;2023-02-28T12:50:05;8.13;;;4.60;;
7515;SDS011;3799;47.184;8.538;2023-02-28T12:52:41;10.00;;;5.43;;
7515;SDS011;3799;47.184;8.538;2023-02-28T13:07:07;10.32;;;4.82;;
7515;SDS011;3799;47.184;8.538;2023-02-28T13:09:54;11.60;;;5.15;;
7515;SDS011;3799;47.184;8.538;2023-02-28T13:12:30;9.27;;;5.22;;
7515;SDS011;3799;47.184;8.538;2023-02-28T13:17:56;9.85;;;4.47;;
7515;SDS011;3799;47.184;8.538;2023-02-28T13:20:28;9.15;;;4.97;;
7515;SDS011;3799;47.184;8.538;2023-02-28T13:23:02;11.13;;;5.50;;
7515;SDS011;3799;47.184;8.538;2023-02-28T13:28:14;10.95;;;5.25;;
7515;SDS011;3799;47.184;8.538;2023-02-28T13:31:24;8.90;;;4.75;;
7515;SDS011;3799;47.184;8.538;2023-02-28T13:36:27;10.15;;;5.15;;
7515;SDS011;3799;47.184;8.538;2023-02-28T13:38:59;7.97;;;4.38;;
7515;SDS011;3799;47.184;8.538;2023-02-28T13:46:33;8.70;;;5.07;;
7515;SDS011;3799;47.184;8.538;2023-02-28T14:11:29;10.32;;;5.50;;
7515;SDS011;3799;47.184;8.538;2023-02-28T14:13:56;9.77;;;5.28;;
7515;SDS011;3799;47.184;8.538;2023-02-28T14:16:24;9.43;;;5.22;;
7515;SDS011;3799;47.184;8.538;2023-02-28T14:19:01;9.80;;;5.50;;
7515;SDS011;3799;47.184;8.538;2023-02-28T14:21:52;11.45;;;5.38;;
7515;SDS011;3799;47.184;8.538;2023-02-28T14:36:09;11.05;;;5.68;;
7515;SDS011;3799;47.184;8.538;2023-02-28T14:38:45;13.55;;;6.07;;
7515;SDS011;3799;47.184;8.538;2023-02-28T14:46:41;8.10;;;4.85;;
7515;SDS011;3799;47.184;8.538;2023-02-28T14:49:28;10.02;;;4.95;;
7515;SDS011;3799;47.184;8.538;2023-02-28T14:54:39;10.13;;;5.13;;
7515;SDS011;3799;47.184;8.538;2023-02-28T15:02:43;11.00;;;5.90;;
7515;SDS011;3799;47.184;8.538;2023-02-28T15:07:46;10.32;;;5.32;;
7515;SDS011;3799;47.184;8.538;2023-02-28T15:10:20;10.43;;;5.72;;
7515;SDS011;3799;47.184;8.538;2023-02-28T15:13:00;11.27;;;6.57;;
7515;SDS011;3799;47.184;8.538;2023-02-28T15:21:04;11.90;;;5.88;;
7515;SDS011;3799;47.184;8.538;2023-02-28T15:23:36;11.75;;;5.80;;
7515;SDS011;3799;47.184;8.538;2023-02-28T15:26:06;10.07;;;5.30;;
7515;SDS011;3799;47.184;8.538;2023-02-28T15:28:33;12.20;;;6.15;;
7515;SDS011;3799;47.184;8.538;2023-02-28T15:31:01;13.82;;;6.13;;
7515;SDS011;3799;47.184;8.538;2023-02-28T15:33:32;8.57;;;5.05;;
7515;SDS011;3799;47.184;8.538;2023-02-28T15:36:34;10.82;;;5.63;;
7515;SDS011;3799;47.184;8.538;2023-02-28T15:38:56;13.05;;;6.03;;
7515;SDS011;3799;47.184;8.538;2023-02-28T15:41:40;11.60;;;6.15;;
7515;SDS011;3799;47.184;8.538;2023-02-28T15:44:27;10.43;;;6.07;;
7515;SDS011;3799;47.184;8.538;2023-02-28T15:47:05;9.43;;;5.38;;
7515;SDS011;3799;47.184;8.538;2023-02-28T15:49:48;10.60;;;6.10;;
7515;SDS011;3799;47.184;8.538;2023-02-28T15:52:24;13.73;;;5.78;;
7515;SDS011;3799;47.184;8.538;2023-02-28T15:57:53;12.23;;;6.38;;
7515;SDS011;3799;47.184;8.538;2023-02-28T16:00:26;10.77;;;6.10;;
7515;SDS011;3799;47.184;8.538;2023-02-28T16:02:59;9.73;;;5.82;;
7515;SDS011;3799;47.184;8.538;2023-02-28T16:05:30;9.98;;;5.68;;
7515;SDS011;3799;47.184;8.538;2023-02-28T16:08:13;10.52;;;6.10;;
7515;SDS011;3799;47.184;8.538;2023-02-28T16:10:42;10.57;;;6.05;;
7515;SDS011;3799;47.184;8.538;2023-02-28T16:13:11;10.95;;;6.13;;
7515;SDS011;3799;47.184;8.538;2023-02-28T16:15:42;9.88;;;5.47;;
7515;SDS011;3799;47.184;8.538;2023-02-28T16:18:11;10.65;;;6.22;;
7515;SDS011;3799;47.184;8.538;2023-02-28T16:20:39;9.77;;;5.85;;
7515;SDS011;3799;47.184;8.538;2023-02-28T16:23:06;10.77;;;5.90;;
7515;SDS011;3799;47.184;8.538;2023-02-28T16:25:38;13.13;;;6.45;;
7515;SDS011;3799;47.184;8.538;2023-02-28T16:28:21;9.88;;;5.72;;
7515;SDS011;3799;47.184;8.538;2023-02-28T16:30:52;11.55;;;6.13;;
7515;SDS011;3799;47.184;8.538;2023-02-28T16:33:26;11.50;;;6.25;;
7515;SDS011;3799;47.184;8.538;2023-02-28T16:35:53;12.82;;;6.35;;
7515;SDS011;3799;47.184;8.538;2023-02-28T16:38:20;11.15;;;6.05;;
7515;SDS011;3799;47.184;8.538;2023-02-28T16:40:49;13.20;;;6.38;;
7515;SDS011;3799;47.184;8.538;2023-02-28T16:43:18;11.85;;;7.10;;
7515;SDS011;3799;47.184;8.538;2023-02-28T16:45:48;12.68;;;6.43;;
7515;SDS011;3799;47.184;8.538;2023-02-28T16:48:20;12.15;;;6.63;;
7515;SDS011;3799;47.184;8.538;2023-02-28T16:50:50;12.13;;;6.65;;
7515;SDS011;3799;47.184;8.538;2023-02-28T16:53:18;14.18;;;7.22;;
7515;SDS011;3799;47.184;8.538;2023-02-28T16:55:46;11.35;;;6.35;;
7515;SDS011;3799;47.184;8.538;2023-02-28T16:58:15;12.60;;;6.45;;
7515;SDS011;3799;47.184;8.538;2023-02-28T17:00:43;11.13;;;6.22;;
7515;SDS011;3799;47.184;8.538;2023-02-28T17:03:19;12.77;;;6.47;;
7515;SDS011;3799;47.184;8.538;2023-02-28T17:05:59;13.52;;;6.18;;
7515;SDS011;3799;47.184;8.538;2023-02-28T17:08:27;11.95;;;7.07;;
7515;SDS011;3799;47.184;8.538;2023-02-28T17:10:56;12.80;;;6.68;;
7515;SDS011;3799;47.184;8.538;2023-02-28T17:13:23;13.20;;;6.90;;
7515;SDS011;3799;47.184;8.538;2023-02-28T17:15:50;11.38;;;6.43;;
7515;SDS011;3799;47.184;8.538;2023-02-28T17:18:18;12.07;;;6.68;;
7515;SDS011;3799;47.184;8.538;2023-02-28T17:20:48;11.95;;;7.00;;
7515;SDS011;3799;47.184;8.538;2023-02-28T17:23:15;13.85;;;7.03;;
7515;SDS011;3799;47.184;8.538;2023-02-28T17:25:44;11.70;;;6.97;;
7515;SDS011;3799;47.184;8.538;2023-02-28T17:28:23;14.50;;;6.78;;
7515;SDS011;3799;47.184;8.538;2023-02-28T17:30:50;13.45;;;7.00;;
7515;SDS011;3799;47.184;8.538;2023-02-28T17:33:18;11.85;;;7.10;;
7515;SDS011;3799;47.184;8.538;2023-02-28T17:35:59;12.32;;;7.43;;
7515;SDS011;3799;47.184;8.538;2023-02-28T17:38:26;12.65;;;7.03;;
7515;SDS011;3799;47.184;8.538;2023-02-28T17:40:54;14.43;;;6.88;;
7515;SDS011;3799;47.184;8.538;2023-02-28T17:43:24;15.30;;;7.65;;
7515;SDS011;3799;47.184;8.538;2023-02-28T17:45:52;13.18;;;7.35;;
7515;SDS011;3799;47.184;8.538;2023-02-28T17:48:19;12.57;;;6.93;;
7515;SDS011;3799;47.184;8.538;2023-02-28T17:50:49;14.88;;;7.20;;
7515;SDS011;3799;47.184;8.538;2023-02-28T17:53:17;16.08;;;7.78;;
7515;SDS011;3799;47.184;8.538;2023-02-28T17:55:44;13.25;;;6.75;;
7515;SDS011;3799;47.184;8.538;2023-02-28T17:58:11;12.90;;;7.05;;
7515;SDS011;3799;47.184;8.538;2023-02-28T18:00:39;14.23;;;6.57;;
7515;SDS011;3799;47.184;8.538;2023-02-28T18:03:06;14.02;;;7.05;;
7515;SDS011;3799;47.184;8.538;2023-02-28T18:05:35;13.50;;;7.47;;
7515;SDS011;3799;47.184;8.538;2023-02-28T18:08:03;11.60;;;6.90;;
7515;SDS011;3799;47.184;8.538;2023-02-28T18:10:30;12.88;;;7.75;;
7515;SDS011;3799;47.184;8.538;2023-02-28T18:12:59;12.50;;;6.68;;
7515;SDS011;3799;47.184;8.538;2023-02-28T18:15:26;12.45;;;6.93;;
7515;SDS011;3799;47.184;8.538;2023-02-28T18:17:54;14.20;;;7.03;;
7515;SDS011;3799;47.184;8.538;2023-02-28T18:20:21;14.13;;;7.50;;
7515;SDS011;3799;47.184;8.538;2023-02-28T18:22:50;14.77;;;7.80;;
7515;SDS011;3799;47.184;8.538;2023-02-28T18:25:18;18.63;;;7.30;;
7515;SDS011;3799;47.184;8.538;2023-02-28T18:27:46;14.88;;;7.22;;
7515;SDS011;3799;47.184;8.538;2023-02-28T18:30:27;16.15;;;7.55;;
7515;SDS011;3799;47.184;8.538;2023-02-28T18:33:08;14.57;;;7.95;;
7515;SDS011;3799;47.184;8.538;2023-02-28T18:35:35;12.93;;;7.32;;
7515;SDS011;3799;47.184;8.538;2023-02-28T18:38:07;13.73;;;7.43;;